Time;durP1;ratioP1;P1;durP2;ratioP2;P2;SDS_P1;SDS_P2;PMS_P1;PMS_P2;Temp;Humidity;BMP_temperature;BMP_pressure;BME280_temperature;BME280_humidity;BME280_pressure;Samples;Min_cycle;Max_cycle;Signal;HPM_P1;HPM_P2
2023/05/05 00:01:01;;;;;;;8.18;4.45;;;;;;;23.45;46.54;94832.69;5004967;28;20037;-91
2023/05/05 00:03:26;;;;;;;7.93;4.88;;;;;;;23.59;47.35;94832.31;5004949;28;20033;-90
2023/05/05 00:05:56;;;;;;;7.35;5.10;;;;;;;23.38;48.10;94833.25;5004835;28;20034;-92
2023/05/05 00:08:21;;;;;;;7.55;5.22;;;;;;;23.29;48.32;94832.59;5005175;28;20090;-91
2023/05/05 00:10:49;;;;;;;6.50;4.47;;;;;;;23.38;47.45;94827.13;5004674;28;20116;-90
2023/05/05 00:13:14;;;;;;;6.97;4.80;;;;;;;23.16;48.42;94834.50;5004873;28;20033;-91
2023/05/05 00:15:44;;;;;;;8.45;5.90;;;;;;;22.89;50.31;94828.75;5004670;28;20454;-91
2023/05/05 00:18:10;;;;;;;7.78;5.05;;;;;;;22.36;50.67;94836.59;5004065;28;20037;-90
2023/05/05 00:20:35;;;;;;;8.32;5.43;;;;;;;22.48;50.72;94827.84;5020633;28;20048;-91
2023/05/05 00:23:01;;;;;;;17.08;5.47;;;;;;;22.08;51.03;94827.28;5004460;28;20033;-90
2023/05/05 00:25:26;;;;;;;7.32;5.13;;;;;;;21.80;51.96;94829.75;5004062;28;20033;-91
2023/05/05 00:27:52;;;;;;;7.90;5.50;;;;;;;21.68;51.67;94831.25;5004465;28;20331;-91
2023/05/05 00:30:17;;;;;;;8.57;5.00;;;;;;;22.24;49.70;94824.00;5004409;28;20033;-91
2023/05/05 00:32:43;;;;;;;7.65;5.10;;;;;;;22.60;49.13;94822.50;5004408;28;20116;-91
2023/05/05 00:35:08;;;;;;;8.85;4.75;;;;;;;22.55;48.47;94826.16;5004135;28;20030;-90
2023/05/05 00:37:34;;;;;;;6.32;4.18;;;;;;;22.79;48.30;94819.28;5004128;28;20439;-91
2023/05/05 00:40:00;;;;;;;6.57;4.30;;;;;;;23.05;47.36;94825.38;5004272;28;20037;-91
2023/05/05 00:42:25;;;;;;;15.45;4.93;;;;;;;23.07;46.87;94820.47;5004149;28;20331;-92
2023/05/05 00:44:51;;;;;;;6.75;4.20;;;;;;;22.97;47.24;94822.50;5020177;28;20033;-91
2023/05/05 00:47:16;;;;;;;10.65;4.40;;;;;;;23.18;46.74;94815.47;5004078;28;20029;-91
2023/05/05 00:49:42;;;;;;;8.30;4.70;;;;;;;23.08;47.27;94809.47;5020191;28;20350;-91
2023/05/05 00:52:08;;;;;;;6.18;4.22;;;;;;;22.78;48.84;94811.59;5003895;28;20036;-91
2023/05/05 00:54:34;;;;;;;5.80;4.22;;;;;;;23.06;48.21;94818.94;5020425;28;20041;-91
2023/05/05 00:57:01;;;;;;;5.35;4.07;;;;;;;22.82;49.00;94812.50;5003963;28;20083;-91
2023/05/05 00:59:29;;;;;;;6.25;4.25;;;;;;;22.68;48.57;94816.28;5003598;28;20098;-91
2023/05/05 01:01:54;;;;;;;6.38;4.60;;;;;;;22.53;48.20;94807.03;5003958;28;20029;-90
2023/05/05 01:04:20;;;;;;;6.22;4.47;;;;;;;22.60;49.14;94803.81;5003839;28;20029;-90
2023/05/05 01:06:51;;;;;;;12.07;4.97;;;;;;;22.71;48.10;94807.59;5003773;28;20033;-90
2023/05/05 01:09:40;;;;;;;7.93;4.40;;;;;;;23.18;48.22;94804.78;5037399;28;20108;-91
2023/05/05 01:12:23;;;;;;;5.20;4.00;;;;;;;23.32;47.37;94796.41;5003989;28;20037;-91
2023/05/05 01:15:06;;;;;;;7.97;4.93;;;;;;;23.21;47.78;94796.09;5019851;28;20187;-90
2023/05/05 01:17:49;;;;;;;6.10;4.68;;;;;;;23.25;47.83;94795.06;5003515;28;20030;-90
2023/05/05 01:20:53;;;;;;;6.45;4.32;;;;;;;23.25;47.95;94799.63;5003354;28;20025;-90
2023/05/05 01:23:36;;;;;;;6.72;4.60;;;;;;;23.31;47.37;94792.94;4957045;29;20027;-90
2023/05/05 01:26:46;;;;;;;6.43;4.43;;;;;;;23.14;47.80;94796.66;4995815;28;20037;-90
2023/05/05 01:30:07;;;;;;;9.90;5.00;;;;;;;22.94;47.72;94791.09;5026792;27;1359982;-91
2023/05/05 01:32:37;;;;;;;6.88;4.95;;;;;;;22.80;48.44;94796.81;5056473;28;20119;-92
2023/05/05 01:35:15;;;;;;;7.63;4.88;;;;;;;22.87;47.95;94794.34;5039906;28;20033;-92
2023/05/05 01:38:07;;;;;;;7.68;4.95;;;;;;;23.48;46.80;94799.16;5039918;28;20025;-91
2023/05/05 01:40:42;;;;;;;6.80;4.80;;;;;;;23.47;46.99;94790.34;5039883;28;20036;-91
2023/05/05 01:43:09;;;;;;;10.23;4.90;;;;;;;23.65;46.61;94787.38;5039903;28;20024;-92
2023/05/05 01:45:37;;;;;;;8.40;5.10;;;;;;;23.58;46.79;94791.44;5039669;28;20025;-90
2023/05/05 01:48:04;;;;;;;8.27;3.90;;;;;;;23.48;46.47;94786.56;5039209;28;20059;-91
2023/05/05 01:50:30;;;;;;;7.47;4.70;;;;;;;22.87;47.65;94786.31;5039516;28;20020;-91
2023/05/05 01:52:56;;;;;;;8.02;4.20;;;;;;;22.38;48.80;94776.44;5039537;28;20024;-90
2023/05/05 01:55:24;;;;;;;6.63;4.22;;;;;;;22.82;48.33;94786.56;5039553;28;20549;-90
2023/05/05 01:57:50;;;;;;;8.13;4.80;;;;;;;22.66;47.95;94780.34;5039423;28;20020;-91
2023/05/05 02:00:18;;;;;;;6.10;4.40;;;;;;;22.98;47.80;94783.19;5039409;28;20025;-91
2023/05/05 02:02:48;;;;;;;6.32;4.53;;;;;;;22.62;48.05;94790.16;5039411;28;20456;-91
2023/05/05 02:05:15;;;;;;;6.60;3.85;;;;;;;22.06;49.48;94797.50;5039323;28;20022;-91
2023/05/05 02:07:44;;;;;;;6.75;4.10;;;;;;;22.91;47.73;94796.34;5056046;28;20094;-91
2023/05/05 02:10:12;;;;;;;6.63;4.40;;;;;;;22.59;48.15;94789.69;5036574;28;20492;-92
2023/05/05 02:12:40;;;;;;;5.82;4.53;;;;;;;22.44;49.05;94788.44;5035561;28;20033;-91
2023/05/05 02:15:07;;;;;;;7.07;4.70;;;;;;;22.29;49.26;94789.09;5039155;28;20338;-92
2023/05/05 02:17:32;;;;;;;10.30;4.88;;;;;;;22.15;49.25;94800.06;5035657;28;20174;-91
2023/05/05 02:19:59;;;;;;;6.65;4.43;;;;;;;22.68;48.36;94789.59;5035373;28;20158;-91
2023/05/05 02:22:25;;;;;;;6.32;4.03;;;;;;;22.26;48.66;94789.75;5024378;28;20334;-91
2023/05/05 02:24:50;;;;;;;8.43;4.20;;;;;;;22.11;48.42;94786.63;5038783;28;20021;-91
2023/05/05 02:27:17;;;;;;;5.93;4.18;;;;;;;22.45;48.33;94771.31;5035406;28;20111;-92
2023/05/05 02:29:47;;;;;;;6.82;3.78;;;;;;;22.68;47.47;94781.56;5036285;28;20028;-92
2023/05/05 02:32:17;;;;;;;5.63;3.38;;;;;;;22.80;46.63;94780.78;5038923;28;20052;-92
2023/05/05 02:34:45;;;;;;;4.60;3.35;;;;;;;22.80;46.50;94785.31;5038841;28;20025;-91
2023/05/05 02:38:15;;;;;;;;;;;;;;;;;;;;;
2023/05/05 02:40:43;;;;;;;4.85;3.33;;;;;;;22.56;46.06;94792.25;5040243;28;20017;-92
2023/05/05 02:43:10;;;;;;;5.07;3.10;;;;;;;21.85;47.48;94798.34;5022391;28;20461;-92
2023/05/05 02:45:36;;;;;;;6.68;2.90;;;;;;;21.75;47.37;94788.88;5015218;28;20033;-93
2023/05/05 02:48:05;;;;;;;6.07;3.17;;;;;;;21.87;47.49;94785.44;5005408;28;20025;-92
2023/05/05 02:50:31;;;;;;;5.68;2.90;;;;;;;21.88;47.17;94797.66;5006148;28;20032;-91
2023/05/05 02:52:57;;;;;;;8.20;3.17;;;;;;;21.98;46.79;94795.72;5005700;28;20389;-92
2023/05/05 02:55:24;;;;;;;6.40;3.20;;;;;;;21.99;47.20;94794.59;5005665;28;20316;-91
2023/05/05 02:57:59;;;;;;;4.97;3.22;;;;;;;22.34;46.48;94783.53;5005635;28;20139;-91
2023/05/05 03:00:59;;;;;;;5.13;3.33;;;;;;;22.93;45.65;94791.47;5005600;28;20029;-92
2023/05/05 03:03:31;;;;;;;6.80;3.58;;;;;;;22.54;47.33;94789.91;5039379;28;20021;-91
2023/05/05 03:06:06;;;;;;;6.53;3.33;;;;;;;22.67;46.94;94781.91;5005790;28;20033;-92
2023/05/05 03:09:06;;;;;;;4.60;3.38;;;;;;;22.73;46.77;94784.00;5005269;28;20032;-92
2023/05/05 03:11:37;;;;;;;5.43;3.67;;;;;;;22.31;48.16;94776.19;4986815;28;20095;-92
2023/05/05 03:14:09;;;;;;;7.53;3.88;;;;;;;22.27;48.04;94778.72;5005328;28;20029;-91
2023/05/05 03:16:35;;;;;;;6.82;4.25;;;;;;;21.86;49.59;94783.09;5005304;28;20403;-91
2023/05/05 03:19:02;;;;;;;6.63;4.03;;;;;;;21.67;49.60;94770.28;5021393;28;20021;-92
2023/05/05 03:21:28;;;;;;;6.85;3.70;;;;;;;21.44;49.13;94774.03;5005126;28;20022;-91
2023/05/05 03:23:53;;;;;;;9.25;4.25;;;;;;;21.41;49.02;94765.94;5005405;28;20029;-92
2023/05/05 03:26:19;;;;;;;5.25;3.65;;;;;;;21.23;49.41;94775.94;5021238;28;20418;-91
2023/05/05 03:28:44;;;;;;;6.88;3.38;;;;;;;21.21;49.23;94770.16;5021005;28;20435;-91
2023/05/05 03:31:10;;;;;;;4.47;3.30;;;;;;;21.45;49.92;94766.81;5005046;28;20044;-91
2023/05/05 03:33:36;;;;;;;5.35;3.13;;;;;;;21.25;49.22;94768.41;5005032;28;20026;-92
2023/05/05 03:36:01;;;;;;;6.22;3.35;;;;;;;21.32;48.78;94758.78;5005401;28;20022;-92
2023/05/05 03:38:26;;;;;;;7.07;3.47;;;;;;;21.19;50.37;94760.63;5021183;28;20021;-92
2023/05/05 03:40:52;;;;;;;4.25;3.10;;;;;;;21.15;49.94;94764.25;5004654;28;20029;-91
2023/05/05 03:43:18;;;;;;;6.95;4.00;;;;;;;21.11;49.88;94766.00;5004845;28;20051;-92
2023/05/05 03:45:43;;;;;;;5.55;3.90;;;;;;;21.14;50.11;94763.44;5004776;28;20021;-91
2023/05/05 03:48:09;;;;;;;6.30;3.72;;;;;;;21.17;50.09;94762.03;5004875;28;20025;-92
2023/05/05 03:50:35;;;;;;;4.80;3.40;;;;;;;21.04;50.89;94761.97;5020247;28;20346;-90
2023/05/05 03:53:00;;;;;;;6.43;3.80;;;;;;;20.83;51.12;94755.84;5004329;28;20033;-90
2023/05/05 03:55:26;;;;;;;6.05;3.88;;;;;;;20.92;51.30;94761.88;5004526;28;20029;-92
2023/05/05 03:57:51;;;;;;;6.13;4.10;;;;;;;20.94;50.93;94759.69;5004417;28;20032;-91
2023/05/05 04:00:17;;;;;;;7.25;4.30;;;;;;;21.26;50.50;94761.97;5004392;28;20438;-92
2023/05/05 04:02:42;;;;;;;4.70;3.70;;;;;;;21.18;50.13;94759.06;5020712;28;20045;-92
2023/05/05 04:05:08;;;;;;;6.00;3.67;;;;;;;21.21;50.61;94754.19;5004409;28;20047;-91
2023/05/05 04:07:33;;;;;;;6.63;3.80;;;;;;;21.15;50.80;94754.34;5004272;28;20025;-92
2023/05/05 04:09:59;;;;;;;5.30;3.78;;;;;;;21.39;50.29;94754.81;5004292;28;20342;-91
2023/05/05 04:12:24;;;;;;;6.28;3.83;;;;;;;21.26;50.98;94754.75;5004256;28;20028;-90
2023/05/05 04:14:50;;;;;;;5.18;3.70;;;;;;;21.96;48.70;94755.25;5004239;28;20028;-93
2023/05/05 04:17:15;;;;;;;4.38;3.35;;;;;;;21.71;49.14;94757.84;5004343;28;20330;-92
2023/05/05 04:19:44;;;;;;;4.32;3.28;;;;;;;22.07;48.76;94760.94;5034221;28;20024;-90
2023/05/05 04:22:10;;;;;;;4.43;3.50;;;;;;;21.71;48.74;94755.94;5023351;28;20051;-91
2023/05/05 04:24:36;;;;;;;5.35;3.67;;;;;;;21.57;48.83;94761.53;5057466;28;20025;-90
2023/05/05 04:27:02;;;;;;;5.32;3.38;;;;;;;21.68;49.01;94767.28;5039636;28;20437;-90
2023/05/05 04:29:27;;;;;;;5.05;3.20;;;;;;;21.77;48.50;94769.84;5019862;28;20064;-90
2023/05/05 04:31:53;;;;;;;5.80;3.45;;;;;;;21.78;49.22;94766.06;5003951;28;20386;-93
2023/05/05 04:34:18;;;;;;;5.57;3.85;;;;;;;21.78;48.58;94767.97;5020119;28;20346;-91
2023/05/05 04:40:06;;;;;;;7.00;4.00;;;;;;;21.28;51.27;94773.06;5037589;28;20041;-92
2023/05/05 04:42:39;;;;;;;7.63;3.92;;;;;;;21.60;50.50;94774.22;5019797;28;20048;-92
2023/05/05 04:45:05;;;;;;;7.23;4.37;;;;;;;21.39;50.59;94776.91;5023140;28;20033;-88
2023/05/05 04:47:31;;;;;;;8.48;4.72;;;;;;;21.38;50.31;94771.91;5023299;28;20037;-89
2023/05/05 04:49:56;;;;;;;7.38;4.63;;;;;;;21.41;50.52;94773.94;5023042;28;20541;-88
2023/05/05 04:52:21;;;;;;;5.68;4.15;;;;;;;21.56;50.34;94773.31;5023453;28;20457;-88
2023/05/05 04:54:47;;;;;;;7.72;4.00;;;;;;;21.81;50.04;94781.44;5023219;28;20040;-88
2023/05/05 04:57:13;;;;;;;5.38;3.83;;;;;;;22.15;49.53;94782.19;5022868;28;20167;-90
2023/05/05 04:59:39;;;;;;;5.05;3.67;;;;;;;22.05;49.95;94781.81;5039030;28;20022;-89
2023/05/05 05:02:05;;;;;;;4.20;3.30;;;;;;;22.08;49.58;94783.81;5021559;28;20031;-91
2023/05/05 05:04:30;;;;;;;4.20;3.00;;;;;;;22.25;48.69;94780.19;5020684;28;20036;-91
2023/05/05 05:06:56;;;;;;;4.15;3.17;;;;;;;22.19;48.10;94776.97;5019453;28;20033;-91
2023/05/05 05:09:21;;;;;;;8.35;4.00;;;;;;;22.10;47.98;94782.41;5019482;28;20124;-91
2023/05/05 05:11:46;;;;;;;6.45;3.42;;;;;;;22.01;48.61;94779.78;5003100;28;20445;-90
2023/05/05 05:14:12;;;;;;;5.40;3.58;;;;;;;22.01;48.79;94782.47;5003058;28;20124;-92
2023/05/05 05:16:37;;;;;;;4.40;3.42;;;;;;;22.03;50.63;94790.94;5003188;28;20427;-92
2023/05/05 05:19:02;;;;;;;4.95;3.50;;;;;;;22.37;50.45;94782.09;5019442;28;20021;-91
2023/05/05 05:21:28;;;;;;;5.90;3.72;;;;;;;22.24;49.76;94789.31;5019272;28;20116;-92
2023/05/05 05:23:53;;;;;;;5.97;3.03;;;;;;;22.42;51.78;94781.84;5003094;28;20128;-91
2023/05/05 05:26:19;;;;;;;8.77;4.03;;;;;;;22.66;51.41;94789.13;5019804;28;20491;-91
2023/05/05 05:28:44;;;;;;;7.82;3.72;;;;;;;22.71;50.03;94788.91;5019556;28;20060;-91
2023/05/05 05:31:10;;;;;;;6.45;3.35;;;;;;;22.98;49.48;94793.88;5019154;28;20056;-93
2023/05/05 05:33:35;;;;;;;4.43;3.15;;;;;;;23.38;48.47;94798.50;5003385;28;20032;-92
2023/05/05 05:36:01;;;;;;;6.70;3.60;;;;;;;23.65;49.04;94792.72;5002994;28;20025;-92
2023/05/05 05:38:26;;;;;;;9.13;3.28;;;;;;;23.72;49.55;94787.59;5003002;28;20076;-92
2023/05/05 05:40:53;;;;;;;5.35;3.17;;;;;;;23.79;48.53;94787.75;5019136;28;20052;-92
2023/05/05 05:43:18;;;;;;;4.57;3.28;;;;;;;24.28;48.45;94789.41;5035841;28;20029;-92
2023/05/05 05:45:44;;;;;;;5.07;3.22;;;;;;;24.31;47.63;94787.94;5036715;28;20025;-91
2023/05/05 05:48:09;;;;;;;6.80;3.40;;;;;;;24.19;49.17;94786.13;5002860;28;20026;-92
2023/05/05 05:50:35;;;;;;;6.80;3.42;;;;;;;24.49;48.11;94784.91;5019354;28;20032;-92
2023/05/05 05:53:00;;;;;;;9.35;3.92;;;;;;;24.73;47.01;94783.19;5019194;28;20030;-93
2023/05/05 05:55:26;;;;;;;5.47;3.60;;;;;;;25.01;47.02;94784.97;5019336;28;20029;-91
2023/05/05 05:57:51;;;;;;;5.65;3.15;;;;;;;24.95;45.91;94789.81;5002818;28;20018;-91
2023/05/05 06:00:17;;;;;;;5.15;3.75;;;;;;;25.16;44.95;94789.50;5019058;28;20033;-92
2023/05/05 06:02:42;;;;;;;4.53;3.38;;;;;;;25.15;44.24;94790.63;5019290;28;20037;-91
2023/05/05 06:05:08;;;;;;;7.10;3.65;;;;;;;25.49;43.66;94793.66;5003015;28;20552;-91
2023/05/05 06:07:33;;;;;;;5.60;3.42;;;;;;;25.49;43.44;94799.00;5036600;28;20442;-91
2023/05/05 06:09:59;;;;;;;6.13;3.58;;;;;;;25.32;43.22;94799.41;5018748;28;20068;-93
2023/05/05 06:12:24;;;;;;;4.78;3.25;;;;;;;25.28;43.38;94793.97;5018892;28;20052;-91
2023/05/05 06:14:50;;;;;;;4.63;3.40;;;;;;;25.36;43.78;94803.72;5004102;28;20060;-93
2023/05/05 06:17:15;;;;;;;5.30;3.85;;;;;;;25.47;43.24;94806.59;5006371;28;20125;-92
2023/05/05 06:19:42;;;;;;;7.38;3.95;;;;;;;25.41;43.96;94805.34;5006340;28;20029;-92
2023/05/05 06:22:07;;;;;;;5.35;3.38;;;;;;;25.69;43.26;94804.38;5022601;28;20038;-91
2023/05/05 06:24:33;;;;;;;5.00;3.33;;;;;;;26.04;42.93;94811.53;5006310;28;20052;-91
2023/05/05 06:26:58;;;;;;;4.85;3.47;;;;;;;26.11;42.57;94800.16;5022799;28;20457;-91
2023/05/05 06:29:24;;;;;;;7.85;3.30;;;;;;;26.44;42.62;94803.41;5022247;28;20501;-91
2023/05/05 06:31:50;;;;;;;3.97;3.17;;;;;;;26.55;42.67;94801.69;5022498;28;20124;-92
2023/05/05 06:34:15;;;;;;;4.68;3.13;;;;;;;26.75;42.58;94809.66;5022265;28;20116;-92
2023/05/05 06:40:04;;;;;;;7.47;2.85;;;;;;;27.14;42.26;94798.72;5039799;28;20488;-93
2023/05/05 06:45:51;;;;;;;4.35;3.13;;;;;;;27.36;42.12;94799.78;5045538;28;20087;-91
2023/05/05 06:48:17;;;;;;;6.00;2.95;;;;;;;27.32;42.25;94800.88;5025166;28;20028;-91
2023/05/05 06:50:42;;;;;;;4.55;2.85;;;;;;;27.28;42.33;94800.81;5022171;28;20036;-91
2023/05/05 06:53:08;;;;;;;7.03;3.10;;;;;;;27.23;43.06;94801.13;5021671;28;20112;-90
2023/05/05 06:55:33;;;;;;;5.10;2.95;;;;;;;27.31;42.94;94799.31;5005542;28;20021;-91
2023/05/05 06:57:58;;;;;;;5.70;3.13;;;;;;;26.88;42.21;94799.50;5005387;28;20053;-90
2023/05/05 07:00:24;;;;;;;4.47;3.25;;;;;;;26.88;43.02;94808.34;5022089;28;20086;-91
2023/05/05 07:02:49;;;;;;;6.70;3.47;;;;;;;26.22;42.25;94801.16;5005489;28;20026;-91
2023/05/05 07:05:15;;;;;;;3.90;2.65;;;;;;;26.92;43.11;94800.34;5005435;28;20083;-91
2023/05/05 07:07:53;;;;;;;4.53;3.10;;;;;;;27.60;42.91;94805.06;5021593;28;20464;-90
2023/05/05 07:10:21;;;;;;;4.07;3.13;;;;;;;26.92;44.59;94800.34;5021757;28;20026;-91
2023/05/05 07:12:47;;;;;;;6.88;2.88;;;;;;;27.10;43.48;94792.50;5005304;28;20025;-91
2023/05/05 07:15:12;;;;;;;4.32;3.22;;;;;;;26.78;41.39;94798.19;5021482;28;20429;-92
2023/05/05 07:17:38;;;;;;;5.03;3.03;;;;;;;27.06;43.12;94795.16;5010713;28;20024;-91
2023/05/05 07:20:04;;;;;;;4.07;3.00;;;;;;;27.45;43.16;94794.13;5024596;28;20052;-92
2023/05/05 07:22:29;;;;;;;3.67;2.90;;;;;;;27.40;42.48;94801.72;5024617;28;20024;-90
2023/05/05 07:24:55;;;;;;;4.55;3.05;;;;;;;27.28;42.89;94789.28;5024534;28;20024;-90
2023/05/05 07:27:58;;;;;;;4.75;2.90;;;;;;;28.14;42.25;94797.56;5041090;28;20037;-90
2023/05/05 07:30:27;;;;;;;4.38;3.15;;;;;;;26.85;43.44;94795.59;5040953;28;20056;-90
2023/05/05 07:32:53;;;;;;;5.45;3.00;;;;;;;27.50;42.09;94796.47;5024827;28;20343;-92
2023/05/05 07:35:19;;;;;;;3.95;2.80;;;;;;;27.27;42.24;94790.44;5041197;28;20032;-91
2023/05/05 07:37:47;;;;;;;3.85;2.90;;;;;;;26.73;42.05;94801.19;5024424;28;20025;-92
2023/05/05 07:40:12;;;;;;;5.22;2.30;;;;;;;27.24;42.05;94798.06;5024686;28;20035;-91
2023/05/05 07:42:38;;;;;;;9.93;2.80;;;;;;;27.18;41.31;94799.53;5040877;28;20029;-90
2023/05/05 07:45:04;;;;;;;5.30;2.50;;;;;;;27.95;39.77;94801.22;5040896;28;20388;-91
2023/05/05 07:47:30;;;;;;;8.50;2.10;;;;;;;27.54;38.31;94798.47;5040638;28;20039;-92
2023/05/05 07:49:56;;;;;;;5.07;2.20;;;;;;;27.92;40.21;94797.38;5024269;28;20028;-91
2023/05/05 07:52:21;;;;;;;2.90;2.08;;;;;;;27.68;39.67;94797.88;5040609;28;20034;-91
2023/05/05 07:54:47;;;;;;;3.30;2.20;;;;;;;28.07;38.96;94802.91;5024073;28;20430;-91
2023/05/05 07:57:12;;;;;;;4.88;2.45;;;;;;;27.89;38.13;94808.09;5040450;28;20050;-91
2023/05/05 07:59:42;;;;;;;3.40;2.60;;;;;;;27.73;38.58;94803.69;5023882;28;20029;-92
2023/05/05 08:02:08;;;;;;;4.25;2.63;;;;;;;28.32;39.47;94802.34;5024399;28;20102;-91
2023/05/05 08:04:33;;;;;;;3.47;2.05;;;;;;;28.28;40.57;94796.97;5040224;28;20025;-92
2023/05/05 08:07:09;;;;;;;2.88;2.15;;;;;;;28.94;37.11;94798.25;5023830;28;20101;-90
2023/05/05 08:09:35;;;;;;;5.82;3.28;;;;;;;28.50;37.35;94794.44;5023589;28;20020;-91
2023/05/05 08:12:03;;;;;;;6.10;2.83;;;;;;;28.64;37.69;94802.63;5057800;28;20074;-91
2023/05/05 08:14:30;;;;;;;5.55;3.08;;;;;;;28.77;39.75;94802.34;5040595;28;20028;-91
2023/05/05 08:17:05;;;;;;;5.78;3.80;;;;;;;28.88;37.68;94797.03;5023778;28;20079;-92
2023/05/05 08:19:31;;;;;;;6.38;2.83;;;;;;;28.90;37.94;94802.81;5023531;28;20021;-92
2023/05/05 08:21:56;;;;;;;4.25;3.03;;;;;;;28.27;39.21;94800.00;5039962;28;20032;-91
2023/05/05 08:24:21;;;;;;;4.47;3.17;;;;;;;28.54;38.78;94802.56;5023558;28;20480;-92
2023/05/05 08:27:34;;;;;;;6.72;3.05;;;;;;;29.43;37.77;94800.84;5039960;28;20123;-90
2023/05/05 08:30:00;;;;;;;3.40;2.55;;;;;;;29.06;37.75;94805.25;5057302;28;20036;-92
2023/05/05 08:32:26;;;;;;;6.28;2.65;;;;;;;28.74;38.01;94800.41;5039615;28;20131;-92
2023/05/05 08:34:51;;;;;;;6.57;2.50;;;;;;;28.45;37.58;94809.03;5040149;28;20430;-92
2023/05/05 08:37:17;;;;;;;4.22;2.63;;;;;;;28.84;37.25;94796.25;5022814;28;20040;-91
2023/05/05 08:39:43;;;;;;;4.07;2.67;;;;;;;29.18;36.59;94798.75;5057206;28;20056;-91
2023/05/05 08:42:09;;;;;;;2.78;2.22;;;;;;;29.16;37.07;94799.16;5039612;28;20405;-91
2023/05/05 08:44:34;;;;;;;4.75;2.40;;;;;;;29.21;38.78;94798.03;5023228;28;20029;-90
2023/05/05 08:47:01;;;;;;;7.25;2.42;;;;;;;29.08;39.39;94805.63;5039453;28;20499;-91
2023/05/05 08:49:31;;;;;;;3.90;2.72;;;;;;;29.30;38.99;94795.75;5023065;28;20132;-91
2023/05/05 08:51:59;;;;;;;7.32;2.85;;;;;;;29.51;37.71;94801.63;5039254;28;20478;-91
2023/05/05 08:54:26;;;;;;;5.07;3.33;;;;;;;29.14;37.81;94792.56;5023157;28;20324;-92
2023/05/05 08:56:52;;;;;;;4.75;3.15;;;;;;;29.51;37.36;94793.53;5039268;28;20032;-91
2023/05/05 08:59:18;;;;;;;5.32;3.40;;;;;;;29.21;37.04;94789.94;5039212;28;20112;-91
2023/05/05 09:01:43;;;;;;;4.95;3.20;;;;;;;29.73;36.95;94797.88;5023032;28;20235;-91
2023/05/05 09:04:09;;;;;;;5.03;3.60;;;;;;;29.63;36.33;94787.81;5023020;28;20036;-93
2023/05/05 09:06:36;;;;;;;4.88;3.10;;;;;;;29.57;36.40;94787.41;5039292;28;20036;-92
2023/05/05 09:09:01;;;;;;;7.43;3.88;;;;;;;29.26;34.42;94786.06;5022778;28;20037;-92
2023/05/05 09:11:27;;;;;;;9.82;3.28;;;;;;;29.43;35.66;94790.03;5022834;28;20044;-92
2023/05/05 09:13:52;;;;;;;5.60;3.30;;;;;;;29.95;34.99;94795.22;5022826;28;20066;-92
2023/05/05 09:16:18;;;;;;;11.35;3.70;;;;;;;29.56;36.53;94782.41;5038989;28;20064;-91
2023/05/05 09:18:44;;;;;;;5.80;3.50;;;;;;;29.20;38.17;94789.13;5022590;28;20025;-90
2023/05/05 09:21:23;;;;;;;8.70;3.33;;;;;;;29.82;36.72;94791.31;5022689;28;20024;-90
2023/05/05 09:24:10;;;;;;;5.70;3.65;;;;;;;30.75;34.28;94782.56;5022635;28;20032;-93
2023/05/05 09:26:46;;;;;;;5.35;3.63;;;;;;;30.45;34.98;94782.97;5022895;28;20029;-91
2023/05/05 09:29:21;;;;;;;5.25;3.85;;;;;;;30.51;33.99;94792.22;5038696;28;20033;-92
2023/05/05 09:32:07;;;;;;;4.53;3.45;;;;;;;30.63;34.87;94793.81;5022326;28;20446;-92
2023/05/05 09:34:34;;;;;;;8.23;4.50;;;;;;;29.98;33.65;94780.94;5038842;28;20029;-91
2023/05/05 09:36:59;;;;;;;5.95;3.20;;;;;;;30.52;35.57;94791.06;5022747;28;20115;-92
2023/05/05 09:39:25;;;;;;;10.18;3.15;;;;;;;30.05;36.81;94781.00;5020788;28;20049;-91
2023/05/05 09:41:50;;;;;;;5.63;3.53;;;;;;;30.28;34.18;94781.78;5038354;28;20037;-90
2023/05/05 09:44:16;;;;;;;6.90;3.25;;;;;;;29.86;36.19;94775.94;5022330;28;20149;-92
2023/05/05 09:50:14;;;;;;;4.78;3.17;;;;;;;31.39;34.23;94779.38;5058333;28;20373;-92
2023/05/05 09:52:55;;;;;;;3.90;2.72;;;;;;;31.22;34.77;94778.25;5026936;28;20047;-91
2023/05/05 09:55:20;;;;;;;3.92;2.88;;;;;;;31.66;34.69;94771.50;5042836;28;20028;-92
2023/05/05 09:57:46;;;;;;;8.43;3.30;;;;;;;30.87;33.89;94770.59;5025962;28;20035;-90
2023/05/05 10:00:13;;;;;;;6.25;3.28;;;;;;;31.35;34.30;94776.66;5026668;28;20024;-92
2023/05/05 10:02:39;;;;;;;3.55;2.90;;;;;;;31.67;34.80;94770.34;5043161;28;20029;-92
2023/05/05 10:05:11;;;;;;;4.72;2.90;;;;;;;31.54;34.62;94769.25;5022090;28;20036;-93
2023/05/05 10:07:38;;;;;;;3.97;2.75;;;;;;;31.59;34.70;94766.91;5022730;28;20032;-93
2023/05/05 10:10:05;;;;;;;4.43;3.00;;;;;;;30.58;33.50;94778.72;5022979;28;20036;-94
2023/05/05 10:12:31;;;;;;;7.97;4.35;;;;;;;30.42;33.77;94770.22;5022726;28;20026;-93
2023/05/05 10:15:00;;;;;;;8.13;3.20;;;;;;;32.00;32.42;94770.19;5022540;28;20032;-93
2023/05/05 10:17:27;;;;;;;5.95;3.53;;;;;;;31.88;33.57;94766.00;5006287;28;20034;-93
2023/05/05 10:19:55;;;;;;;7.25;4.53;;;;;;;30.77;36.59;94762.47;5022276;28;20029;-91
2023/05/05 10:22:22;;;;;;;8.45;4.00;;;;;;;30.76;36.31;94761.72;5006220;28;20029;-91
2023/05/05 10:24:56;;;;;;;5.45;4.10;;;;;;;30.86;34.77;94752.03;5006252;28;20041;-92
2023/05/05 10:27:23;;;;;;;7.07;4.63;;;;;;;30.91;34.48;94761.69;5022070;28;20118;-93
2023/05/05 10:30:10;;;;;;;5.75;4.40;;;;;;;31.20;34.89;94756.97;5005651;28;20076;-92
2023/05/05 10:32:42;;;;;;;5.32;3.80;;;;;;;31.60;34.15;94752.19;5005830;28;20040;-92
2023/05/05 10:35:09;;;;;;;5.82;4.50;;;;;;;31.68;34.43;94755.63;5022126;28;20029;-93
2023/05/05 10:37:36;;;;;;;6.72;4.57;;;;;;;30.76;33.41;94753.59;5022048;28;20025;-92
2023/05/05 10:40:02;;;;;;;4.72;3.65;;;;;;;31.03;33.86;94750.47;5022127;28;20104;-91
2023/05/05 10:42:28;;;;;;;6.38;3.25;;;;;;;31.39;33.62;94746.88;5005804;28;20407;-92
2023/05/05 10:44:53;;;;;;;7.47;3.67;;;;;;;31.42;33.74;94733.34;5005624;28;20039;-92
2023/05/05 10:47:20;;;;;;;4.57;2.97;;;;;;;31.43;36.19;94732.19;5022142;28;20033;-91
2023/05/05 10:49:45;;;;;;;8.63;3.75;;;;;;;31.28;34.40;94736.13;5022180;28;20554;-92
2023/05/05 10:52:36;;;;;;;7.82;3.58;;;;;;;31.94;33.63;94740.03;5038461;28;20033;-93
2023/05/05 10:55:08;;;;;;;6.07;3.42;;;;;;;32.18;33.12;94729.41;5038544;28;20120;-92
2023/05/05 10:57:38;;;;;;;3.45;2.83;;;;;;;31.80;34.14;94723.88;5005933;28;20021;-94
2023/05/05 11:00:06;;;;;;;6.07;3.20;;;;;;;31.73;33.95;94728.16;5021155;28;20061;-91
2023/05/05 11:02:32;;;;;;;3.13;2.80;;;;;;;31.07;34.87;94713.34;5022012;28;20029;-92
2023/05/05 11:05:20;;;;;;;9.18;3.97;;;;;;;31.62;32.75;94710.41;5005456;28;20398;-91
2023/05/05 11:07:48;;;;;;;6.53;2.80;;;;;;;32.07;35.27;94715.19;5022276;28;20382;-93
2023/05/05 11:10:15;;;;;;;4.95;3.28;;;;;;;30.70;34.97;94718.06;5021809;28;20041;-92
2023/05/05 11:13:01;;;;;;;5.82;3.08;;;;;;;31.60;33.19;94710.81;5021953;28;20105;-92
2023/05/05 11:15:26;;;;;;;4.40;2.45;;;;;;;30.32;36.18;94712.28;5038232;28;20339;-92
2023/05/05 11:17:56;;;;;;;4.55;2.70;;;;;;;30.68;35.57;94714.22;5038028;28;20121;-91
2023/05/05 11:20:34;;;;;;;4.78;2.92;;;;;;;31.20;35.77;94705.53;5021522;28;20025;-92
2023/05/05 11:23:02;;;;;;;7.13;2.95;;;;;;;30.37;34.54;94708.44;5038908;28;20108;-92
2023/05/05 11:25:34;;;;;;;7.18;2.92;;;;;;;30.99;33.95;94701.78;5038760;28;20120;-93
2023/05/05 11:28:10;;;;;;;9.70;3.00;;;;;;;30.75;33.80;94703.41;5037699;28;20026;-92
2023/05/05 11:30:55;;;;;;;11.55;2.75;;;;;;;30.50;35.59;94701.47;5021194;28;20044;-93
2023/05/05 11:33:36;;;;;;;5.70;3.20;;;;;;;30.35;34.96;94700.72;5037862;28;20033;-93
2023/05/05 11:36:03;;;;;;;5.43;3.15;;;;;;;30.59;35.45;94693.75;5021396;28;20045;-93
2023/05/05 11:38:35;;;;;;;4.22;3.25;;;;;;;31.70;34.89;94696.41;5037962;28;20029;-92
2023/05/05 11:41:12;;;;;;;4.80;2.83;;;;;;;32.10;33.32;94692.69;5038643;28;20120;-92
2023/05/05 11:43:39;;;;;;;3.72;2.45;;;;;;;31.78;34.50;94690.97;5021163;28;20063;-93
2023/05/05 11:46:15;;;;;;;3.72;2.70;;;;;;;30.47;34.48;94691.44;5020978;28;20025;-92
2023/05/05 11:48:47;;;;;;;4.70;2.88;;;;;;;31.49;35.69;94685.72;5004731;28;20036;-92
2023/05/05 11:51:14;;;;;;;4.75;3.00;;;;;;;31.34;33.07;94696.63;5020813;28;20035;-94
2023/05/05 11:53:44;;;;;;;10.95;2.50;;;;;;;32.77;32.65;94686.28;5020653;28;20447;-92
2023/05/05 11:56:10;;;;;;;7.38;3.05;;;;;;;32.53;32.33;94689.63;5021004;28;20049;-94